Terminal Aerodrome Forecast
Issued by NWS Topeka, KS

Home | Current Version | Previous Version | Graphics & Text | Print | Product List | Glossary On
Versions: 1 2 3 4 5 6 7 8 9 10 11 12 13 14 15 16 17 18 19 20 21 22
000
FTUS43 KTOP 181100 CCA
TAFTOP
TAF COR
KTOP 181154Z 1812/1912 08006KT 3SM -SN BR OVC015
      TEMPO 1812/1814 1 1/2SM -SN SCT005
     FM181500 06004KT 3SM BR OVC010
     FM182000 00000KT 5SM BR OVC015=

USA.gov is the U.S. government's official web portal to all federal, state and local government web resources and services.